Time;durP1;ratioP1;P1;durP2;ratioP2;P2;SDS_P1;SDS_P2;PMS_P1;PMS_P2;Temp;Humidity;BMP_temperature;BMP_pressure;BME280_temperature;BME280_humidity;BME280_pressure;Samples;Min_cycle;Max_cycle;Signal;HPM_P1;HPM_P2
2022/02/04 00:05:44;;;;;;;105.55;46.17;;;77.40;2227.20;;;;;;4860848;29;20044;-84
2022/02/04 00:24:39;;;;;;;100.28;47.13;;;77.40;2227.20;;;;;;4841280;29;20128;-89
2022/02/04 00:27:14;;;;;;;102.78;46.70;;;77.20;2227.20;;;;;;4842188;29;20133;-92
2022/02/04 00:32:20;;;;;;;118.93;49.20;;;76.90;2227.20;;;;;;4838259;29;20029;-90
2022/02/04 00:34:52;;;;;;;114.43;49.03;;;76.80;2227.20;;;;;;4841952;29;20037;-84
2022/02/04 00:39:52;;;;;;;100.20;46.13;;;77.10;2227.20;;;;;;4841400;29;20094;-90
2022/02/04 00:42:18;;;;;;;103.70;49.80;;;76.90;2227.20;;;;;;4854488;29;20040;-76
2022/02/04 00:44:43;;;;;;;108.80;48.38;;;52.10;2227.20;;;;;;4870289;29;20127;-92
2022/02/04 00:47:15;;;;;;;;;;;52.10;2227.20;;;;;;4883588;29;20028;-91
2022/02/04 00:54:57;;;;;;;93.20;42.90;;;52.10;2227.20;;;;;;4910550;29;20112;-84
2022/02/04 01:27:12;;;;;;;62.95;30.38;;;51.90;2227.20;;;;;;4906665;29;20024;-90
2022/02/04 01:29:49;;;;;;;57.28;26.58;;;51.80;2227.20;;;;;;4907495;29;20035;-78
2022/02/04 01:32:16;;;;;;;51.15;25.35;;;51.70;2227.20;;;;;;4908993;29;20024;-90
2022/02/04 01:34:42;;;;;;;58.22;26.05;;;51.70;2227.20;;;;;;4906111;29;20030;-92
2022/02/04 01:37:07;;;;;;;;;;;51.80;2227.20;;;;;;4906589;29;20025;-81
2022/02/04 01:39:33;;;;;;;60.03;24.77;;;51.80;2227.20;;;;;;4909067;29;20011;-91
2022/02/04 01:42:00;;;;;;;;;;;51.80;2227.20;;;;;;4908220;29;20477;-87
2022/02/04 01:44:27;;;;;;;35.63;19.58;;;51.80;2227.20;;;;;;4889585;29;19918;-87
2022/02/04 01:46:54;;;;;;;58.90;24.30;;;51.70;2227.20;;;;;;4910237;29;20056;-92
2022/02/04 01:49:19;;;;;;;55.55;27.63;;;51.60;2227.20;;;;;;4907494;29;20032;-82
2022/02/04 01:51:46;;;;;;;;;;;51.70;2227.20;;;;;;4906810;29;20043;-86
2022/02/04 01:54:12;;;;;;;54.78;24.30;;;51.70;2227.20;;;;;;4890155;29;19911;-92
2022/02/04 01:56:38;;;;;;;57.15;26.50;;;51.70;2227.20;;;;;;4890705;29;20032;-90
2022/02/04 01:59:04;;;;;;;;;;;51.70;2227.20;;;;;;4889872;29;20028;-89
2022/02/04 02:01:29;;;;;;;51.22;23.67;;;51.70;2227.20;;;;;;4905979;29;19915;-92
2022/02/04 02:03:57;;;;;;;57.95;27.90;;;51.70;2227.20;;;;;;4889869;29;20032;-91
2022/02/04 02:07:00;;;;;;;58.50;26.77;;;51.60;2227.20;;;;;;4906952;29;20024;-89
2022/02/04 02:09:34;;;;;;;53.95;26.58;;;51.60;2227.20;;;;;;4907018;29;20044;-90
2022/02/04 02:12:04;;;;;;;64.05;29.45;;;51.60;2227.20;;;;;;4908753;29;20032;-82
2022/02/04 02:14:32;;;;;;;52.97;27.10;;;51.50;2227.20;;;;;;4906439;29;20028;-86
2022/02/04 02:33:49;;;;;;;53.83;29.35;;;51.70;2227.20;;;;;;4907440;29;20508;-77
2022/02/04 02:52:28;;;;;;;70.82;34.17;;;76.80;2227.20;;;;;;4905297;29;20044;-88
2022/02/04 03:00:35;;;;;;;64.80;33.08;;;77.10;2227.20;;;;;;4907550;29;20043;-88
2022/02/04 03:02:54;;;;;;;68.60;34.15;;;77.10;2227.20;;;;;;4906954;29;20124;-91
2022/02/04 03:05:19;;;;;;;72.95;35.25;;;76.90;2227.20;;;;;;4907497;29;20028;-92
2022/02/04 03:07:45;;;;;;;85.70;37.75;;;76.80;2227.20;;;;;;4906558;29;20108;-92
2022/02/04 03:10:10;;;;;;;;;;;76.80;2227.20;;;;;;4905914;29;20100;-92
2022/02/04 03:12:37;;;;;;;68.30;34.83;;;51.90;2227.20;;;;;;4907322;29;19907;-89
2022/02/04 03:15:03;;;;;;;71.85;34.65;;;51.70;2227.20;;;;;;4890811;29;20031;-88
2022/02/04 03:17:29;;;;;;;73.85;36.97;;;51.60;2227.20;;;;;;4891090;29;20504;-78
2022/02/04 03:19:59;;;;;;;77.28;37.35;;;51.50;2227.20;;;;;;4907693;29;20020;-93
2022/02/04 03:22:24;;;;;;;70.78;34.40;;;51.40;2227.20;;;;;;4905449;29;20033;-76
2022/02/04 03:24:58;;;;;;;74.00;33.42;;;51.40;2227.20;;;;;;4891476;29;20031;-86
2022/02/04 03:27:31;;;;;;;70.70;34.38;;;51.30;2227.20;;;;;;4905144;29;20106;-94
2022/02/04 03:30:08;;;;;;;67.15;33.30;;;51.30;2227.20;;;;;;4888855;29;20201;-92
2022/02/04 03:32:38;;;;;;;72.65;35.05;;;26.50;2201.60;;;;;;4904479;29;20032;-92
2022/02/04 03:35:04;;;;;;;69.90;34.03;;;26.50;2201.60;;;;;;4890317;29;20035;-79
2022/02/04 03:37:29;;;;;;;;;;;51.20;2227.20;;;;;;4906134;29;20450;-76
2022/02/04 03:39:55;;;;;;;64.70;31.13;;;51.20;2227.20;;;;;;4891270;29;20012;-93
2022/02/04 03:42:20;;;;;;;;;;;26.50;2201.60;;;;;;4906060;29;20398;-93
2022/02/04 03:44:46;;;;;;;70.70;33.30;;;26.50;2201.60;;;;;;4907446;29;19907;-83
2022/02/04 03:47:12;;;;;;;;;;;26.40;2201.60;;;;;;4908544;29;20363;-87
2022/02/04 03:49:37;;;;;;;60.20;31.95;;;26.50;2201.60;;;;;;4891788;29;19912;-75
2022/02/04 03:52:04;;;;;;;;;;;26.40;2201.60;;;;;;4910772;29;20469;-87
2022/02/04 03:54:29;;;;;;;64.38;29.20;;;26.30;2201.60;;;;;;4891332;29;19913;-93
2022/02/04 03:56:55;;;;;;;;;;;26.30;2201.60;;;;;;4908454;29;20020;-77
2022/02/04 03:59:25;;;;;;;67.22;29.95;;;26.30;2201.60;;;;;;4910031;29;19907;-80
2022/02/04 04:01:51;;;;;;;60.63;29.92;;;26.30;2201.60;;;;;;4893442;29;20036;-85
2022/02/04 04:04:17;;;;;;;63.33;28.33;;;26.30;2201.60;;;;;;4910824;29;20385;-93
2022/02/04 04:06:43;;;;;;;;;;;26.30;2201.60;;;;;;4891714;29;20028;-94
2022/02/04 04:09:08;;;;;;;55.58;26.48;;;26.30;2201.60;;;;;;4890927;29;20001;-89
2022/02/04 04:11:34;;;;;;;;;;;26.20;2201.60;;;;;;4910248;29;20029;-93
2022/02/04 04:14:00;;;;;;;66.47;28.65;;;26.30;2201.60;;;;;;4897098;29;19907;-75
2022/02/04 04:16:25;;;;;;;;;;;26.40;2201.60;;;;;;4921953;29;20105;-75
2022/02/04 04:18:51;;;;;;;68.75;25.85;;;26.30;2201.60;;;;;;4895653;29;19911;-78
2022/02/04 04:21:17;;;;;;;;;;;26.40;2201.60;;;;;;4891566;29;20449;-92
2022/02/04 04:23:43;;;;;;;46.90;24.60;;;26.40;2201.60;;;;;;4893517;29;19907;-93
2022/02/04 04:26:08;;;;;;;;;;;26.40;2201.60;;;;;;4909667;29;20103;-78
2022/02/04 04:28:34;;;;;;;49.60;25.42;;;26.40;2201.60;;;;;;4906030;29;19911;-75
2022/02/04 04:30:59;;;;;;;;;;;26.40;2201.60;;;;;;4906578;29;20485;-92
2022/02/04 04:33:25;;;;;;;61.42;24.63;;;26.40;2201.60;;;;;;4906141;29;20360;-90
2022/02/04 04:35:51;;;;;;;;;;;26.40;2201.60;;;;;;4908487;29;20107;-76
2022/02/04 04:41:07;;;;;;;50.92;26.20;;;26.40;2201.60;;;;;;4907927;29;20088;-91
2022/02/04 05:29:14;;;;;;;45.63;21.17;;;51.20;2227.20;;;;;;4907896;29;20433;-91
2022/02/04 05:31:44;;;;;;;45.40;21.02;;;26.50;2201.60;;;;;;4906480;29;20040;-93
2022/02/04 05:34:10;;;;;;;47.83;24.05;;;26.40;2201.60;;;;;;4892106;29;20056;-92
2022/02/04 05:36:41;;;;;;;37.72;20.90;;;26.40;2201.60;;;;;;4891641;29;20072;-79
2022/02/04 05:39:07;;;;;;;43.05;20.30;;;26.40;2201.60;;;;;;4909225;29;20071;-75
2022/02/04 05:41:38;;;;;;;65.40;26.60;;;26.40;2201.60;;;;;;4888258;29;20497;-87
2022/02/04 05:44:08;;;;;;;47.92;21.90;;;26.40;2201.60;;;;;;4906604;29;20103;-82
2022/02/04 05:46:45;;;;;;;49.20;22.88;;;26.50;2201.60;;;;;;4893305;29;20027;-75
2022/02/04 05:49:13;;;;;;;41.15;19.58;;;26.50;2201.60;;;;;;4894530;29;20028;-94
2022/02/04 05:51:49;;;;;;;45.40;20.20;;;26.40;2201.60;;;;;;4910173;29;20079;-81
2022/02/04 05:54:23;;;;;;;30.27;16.15;;;26.50;2201.60;;;;;;4892943;29;20027;-93
2022/02/04 06:13:03;;;;;;;36.95;18.75;;;51.30;2227.20;;;;;;4910591;29;20031;-79
2022/02/04 06:23:10;;;;;;;58.58;25.20;;;51.50;2227.20;;;;;;4909228;29;20108;-91
2022/02/04 06:25:37;;;;;;;;;;;51.50;2227.20;;;;;;4906982;29;20124;-91
2022/02/04 06:28:03;;;;;;;230.63;94.20;;;51.40;2227.20;;;;;;4908184;29;20002;-93
2022/02/04 06:30:28;;;;;;;;;;;51.40;2227.20;;;;;;4889819;29;20108;-84
2022/02/04 06:32:54;;;;;;;61.53;29.75;;;51.50;2227.20;;;;;;4906456;29;19919;-76
2022/02/04 06:35:20;;;;;;;41.28;18.25;;;51.60;2227.20;;;;;;4908409;29;20016;-92
2022/02/04 06:37:46;;;;;;;;;;;51.90;2227.20;;;;;;4908993;29;20059;-77
2022/02/04 06:40:12;;;;;;;50.08;22.95;;;51.80;2227.20;;;;;;4906883;29;20025;-92
2022/02/04 06:42:37;;;;;;;;;;;51.70;2227.20;;;;;;4890320;29;20056;-93
2022/02/04 06:45:05;;;;;;;;;;;51.70;2227.20;;;;;;4907601;29;19949;-90
2022/02/04 06:47:31;;;;;;;;;;;51.70;2227.20;;;;;;4904395;29;19907;-91
2022/02/04 06:49:56;;;;;;;;;;;51.80;2227.20;;;;;;4908744;29;19915;-78
2022/02/04 06:52:22;;;;;;;;;;;51.80;2227.20;;;;;;4889445;29;19912;-92
2022/02/04 06:54:48;;;;;;;;;;;51.80;2227.20;;;;;;4909035;29;20047;-91
2022/02/04 06:57:14;;;;;;;;;;;51.80;2227.20;;;;;;4908009;29;19975;-93
2022/02/04 06:59:42;;;;;;;;;;;51.70;2227.20;;;;;;4907604;29;19911;-84
2022/02/04 07:02:08;;;;;;;;;;;51.80;2227.20;;;;;;4906008;29;20040;-92
2022/02/04 07:04:35;;;;;;;;;;;51.80;2227.20;;;;;;4906649;29;19963;-87
2022/02/04 07:07:02;;;;;;;;;;;51.80;2227.20;;;;;;4889804;29;19911;-90
2022/02/04 07:09:46;;;;;;;;;;;51.80;2227.20;;;;;;4900070;29;20360;-92
2022/02/04 07:19:51;;;;;;;;;;;51.80;2227.20;;;;;;4917906;29;19914;-90
2022/02/04 07:22:31;;;;;;;;;;;51.80;2227.20;;;;;;4920832;29;19935;-77
2022/02/04 07:24:59;;;;;;;;;;;52.00;2227.20;;;;;;4920823;29;19961;-78
2022/02/04 07:27:25;;;;;;;;;;;52.00;2227.20;;;;;;4904191;29;19946;-86
2022/02/04 07:29:53;;;;;;;;;;;52.00;2227.20;;;;;;4915577;29;19899;-75
2022/02/04 07:42:39;;;;;;;;;;;52.00;2227.20;;;;;;4920784;29;19914;-89
2022/02/04 07:45:05;;;;;;;;;;;76.80;2227.20;;;;;;4919297;29;19907;-87
2022/02/04 07:47:31;;;;;;;;;;;76.80;2227.20;;;;;;4903198;29;19998;-79
2022/02/04 07:49:56;;;;;;;;;;;76.90;2227.20;;;;;;4919983;29;19910;-84
2022/02/04 07:52:22;;;;;;;;;;;77.00;2227.20;;;;;;4919023;29;19911;-91
2022/02/04 07:54:47;;;;;;;;;;;77.10;2227.20;;;;;;4919985;29;19915;-89
2022/02/04 07:57:13;;;;;;;;;;;77.10;2227.20;;;;;;4920074;29;19914;-85
2022/02/04 07:59:39;;;;;;;;;;;77.10;2227.20;;;;;;4919807;29;19911;-83
2022/02/04 08:02:05;;;;;;;;;;;77.00;2227.20;;;;;;4902890;29;19911;-89
2022/02/04 08:04:35;;;;;;;;;;;77.20;2227.20;;;;;;4919950;29;19923;-83
2022/02/04 08:07:05;;;;;;;;;;;77.20;2227.20;;;;;;4902492;29;19915;-78
2022/02/04 08:15:01;;;;;;;;;;;77.10;2227.20;;;;;;4913043;29;19907;-83
2022/02/04 08:18:13;;;;;;;;;;;77.10;2227.20;;;;;;4911819;29;19915;-83
2022/02/04 08:26:17;;;;;;;;;;;77.10;2227.20;;;;;;4900542;29;19915;-82
2022/02/04 08:31:35;;;;;;;;;;;77.20;2227.20;;;;;;4892446;29;19923;-83
2022/02/04 08:54:37;;;;;;;;;;;77.40;2227.20;;;;;;4900493;29;19908;-85
2022/02/04 08:57:08;;;;;;;;;;;77.60;2227.20;;;;;;4899630;29;19911;-76
2022/02/04 09:02:41;;;;;;;;;;;77.50;2227.20;;;;;;4900279;29;20027;-76
2022/02/04 09:05:08;;;;;;;;;;;77.70;2227.20;;;;;;4899481;29;19911;-76
2022/02/04 09:07:49;;;;;;;;;;;77.70;2227.20;;;;;;4899971;29;19908;-82
2022/02/04 09:10:16;;;;;;;;;;;77.70;2227.20;;;;;;4899619;29;19915;-78
2022/02/04 09:20:32;;;;;;;;;;;102.40;2227.20;;;;;;4899497;29;19907;-80
2022/02/04 09:22:58;;;;;;;;;;;102.40;2227.20;;;;;;4899397;29;20006;-81
2022/02/04 09:25:28;;;;;;;;;;;77.70;2227.20;;;;;;4899426;29;20341;-82
2022/02/04 09:27:54;;;;;;;;;;;102.40;2227.20;;;;;;4882965;29;19947;-81
2022/02/04 09:30:21;;;;;;;;;;;77.70;2227.20;;;;;;4903675;29;19966;-80
2022/02/04 09:32:46;;;;;;;;;;;77.70;2227.20;;;;;;4908658;29;19915;-78
2022/02/04 09:35:17;;;;;;;;;;;77.70;2227.20;;;;;;4889146;29;19911;-78
2022/02/04 09:37:43;;;;;;;;;;;77.70;2227.20;;;;;;4891133;29;19911;-81
2022/02/04 09:40:11;;;;;;;;;;;77.70;2227.20;;;;;;4890961;29;19919;-81
2022/02/04 09:42:38;;;;;;;;;;;102.40;2227.20;;;;;;4910007;29;19938;-77
2022/02/04 09:45:04;;;;;;;;;;;102.50;2227.20;;;;;;4892450;29;20371;-79
2022/02/04 09:47:37;;;;;;;;;;;102.60;2227.20;;;;;;4909058;29;19911;-76
2022/02/04 09:50:04;;;;;;;;;;;102.70;2227.20;;;;;;4912363;29;19930;-83
2022/02/04 10:14:24;;;;;;;;;;;128.00;2252.80;;;;;;4904965;29;19953;-83
2022/02/04 10:17:23;;;;;;;;;;;128.10;2252.80;;;;;;4907781;29;19963;-84
2022/02/04 10:22:27;;;;;;;;;;;128.30;2252.80;;;;;;4912200;29;19951;-84
2022/02/04 10:25:12;;;;;;;;;;;128.20;2252.80;;;;;;4899588;29;19908;-88
2022/02/04 10:27:38;;;;;;;;;;;128.40;2252.80;;;;;;4908823;29;20360;-92
2022/02/04 10:30:04;;;;;;;;;;;128.90;2252.80;;;;;;4906767;29;19924;-76
2022/02/04 10:32:35;;;;;;;;;;;153.80;2252.80;;;;;;4907460;29;19907;-78
2022/02/04 10:35:05;;;;;;;;;;;153.90;2252.80;;;;;;4909118;29;20002;-79
2022/02/04 10:37:33;;;;;;;;;;;154.40;2252.80;;;;;;4917446;29;19907;-77
2022/02/04 10:40:08;;;;;;;;;;;154.50;2252.80;;;;;;4913740;29;20058;-86
2022/02/04 11:01:30;;;;;;;;;;;179.70;2252.80;;;;;;4902284;29;19960;-80
2022/02/04 11:04:02;;;;;;;;;;;179.70;2252.80;;;;;;4902000;29;19915;-81
2022/02/04 11:09:35;;;;;;;;;;;179.80;2252.80;;;;;;4911678;29;20326;-78
2022/02/04 11:21:58;;;;;;;;;;;179.90;2252.80;;;;;;4919996;29;19915;-77
2022/02/04 11:34:08;;;;;;;;;;;205.40;2252.80;;;;;;4915127;29;20005;-76
2022/02/04 11:36:44;;;;;;;;;;;205.50;2252.80;;;;;;4911377;29;19914;-82
2022/02/04 11:48:07;;;;;;;;;;;205.50;2252.80;;;;;;4913003;29;20332;-76
2022/02/04 11:51:09;;;;;;;;;;;205.50;2252.80;;;;;;4911114;29;20005;-88
2022/02/04 11:53:33;;;;;;;;;;;205.50;2252.80;;;;;;4910897;29;19911;-83
2022/02/04 11:55:59;;;;;;;;;;;205.60;2252.80;;;;;;4910862;29;20367;-79
2022/02/04 11:58:25;;;;;;;;;;;230.50;2252.80;;;;;;4894072;29;20320;-75
2022/02/04 12:01:02;;;;;;;;;;;230.50;2252.80;;;;;;4900681;29;19915;-76
2022/02/04 12:03:38;;;;;;;;;;;230.70;2252.80;;;;;;4884252;29;19954;-79
2022/02/04 12:06:05;;;;;;;;;;;230.80;2252.80;;;;;;4883655;29;20278;-82
2022/02/04 12:08:31;;;;;;;;;;;231.00;2252.80;;;;;;4883997;29;19907;-81
2022/02/04 12:10:58;;;;;;;;;;;231.00;2252.80;;;;;;4900682;29;19920;-75
2022/02/04 12:13:24;;;;;;;;;;;230.80;2252.80;;;;;;4900765;29;19914;-79
2022/02/04 12:16:07;;;;;;;;;;;230.60;2252.80;;;;;;4883857;29;19958;-80
2022/02/04 12:18:39;;;;;;;;;;;230.70;2252.80;;;;;;4900491;29;19907;-85
2022/02/04 12:21:05;;;;;;;;;;;230.70;2252.80;;;;;;4900794;29;20368;-85
2022/02/04 12:23:35;;;;;;;;;;;231.00;2252.80;;;;;;4900561;29;19915;-85
2022/02/04 12:26:12;;;;;;;;;;;230.90;2252.80;;;;;;4900920;29;19912;-85
2022/02/04 12:28:37;;;;;;;;;;;231.00;2252.80;;;;;;4899580;29;19911;-80
2022/02/04 12:31:10;;;;;;;;;;;231.00;2252.80;;;;;;4900087;29;19951;-77
2022/02/04 12:33:44;;;;;;;;;;;231.10;2252.80;;;;;;4900687;29;20368;-82
2022/02/04 12:36:14;;;;;;;;;;;231.20;2252.80;;;;;;4900423;29;19918;-83
2022/02/04 12:38:39;;;;;;;;;;;231.10;2252.80;;;;;;4883553;29;19915;-83
2022/02/04 12:41:05;;;;;;;;;;;231.10;2252.80;;;;;;4883887;29;19980;-83
2022/02/04 12:43:35;;;;;;;;;;;231.00;2252.80;;;;;;4883290;29;19907;-83
2022/02/04 12:46:01;;;;;;;;;;;231.20;2252.80;;;;;;4889754;29;20352;-82
2022/02/04 12:48:27;;;;;;;;;;;231.10;2252.80;;;;;;4906532;29;19922;-75
2022/02/04 12:50:54;;;;;;;;;;;230.90;2252.80;;;;;;4910984;29;19919;-80
2022/02/04 12:53:27;;;;;;;;;;;230.90;2252.80;;;;;;4910015;29;19911;-80
2022/02/04 12:56:37;;;;;;;;;;;230.80;2252.80;;;;;;4910072;29;19914;-77
2022/02/04 13:09:51;;;;;;;;;;;230.80;2252.80;;;;;;4909333;29;19932;-82
2022/02/04 13:12:18;;;;;;;;;;;230.70;2252.80;;;;;;4890293;29;19920;-78
2022/02/04 13:14:45;;;;;;;;;;;230.70;2252.80;;;;;;4907348;29;20003;-87
2022/02/04 13:17:11;;;;;;;;;;;230.70;2252.80;;;;;;4892439;29;19915;-88
2022/02/04 13:19:37;;;;;;;;;;;230.60;2252.80;;;;;;4907306;29;19922;-77
2022/02/04 13:22:02;;;;;;;;;;;230.60;2252.80;;;;;;4913011;29;19907;-82
2022/02/04 13:24:28;;;;;;;;;;;230.80;2252.80;;;;;;4918496;29;19915;-79
2022/02/04 13:26:54;;;;;;;;;;;230.70;2252.80;;;;;;4918538;29;20010;-80
2022/02/04 13:29:24;;;;;;;;;;;230.70;2252.80;;;;;;4917217;29;19950;-83
2022/02/04 13:31:50;;;;;;;;;;;230.80;2252.80;;;;;;4918578;29;19926;-86
2022/02/04 13:34:17;;;;;;;;;;;230.70;2252.80;;;;;;4901053;29;19914;-82
2022/02/04 13:36:51;;;;;;;;;;;230.80;2252.80;;;;;;4918305;29;20272;-83
2022/02/04 13:47:11;;;;;;;;;;;230.70;2252.80;;;;;;4917764;29;19914;-81
2022/02/04 13:52:25;;;;;;;;;;;230.80;2252.80;;;;;;4914826;29;19946;-84
2022/02/04 13:55:16;;;;;;;;;;;230.70;2252.80;;;;;;4909567;29;19907;-85
2022/02/04 13:57:56;;;;;;;;;;;230.70;2252.80;;;;;;4908958;29;19908;-78
2022/02/04 14:02:53;;;;;;;;;;;230.80;2252.80;;;;;;4908736;29;20393;-81
2022/02/04 14:05:30;;;;;;;;;;;230.70;2252.80;;;;;;4908670;29;19976;-80
2022/02/04 14:08:05;;;;;;;;;;;230.70;2252.80;;;;;;4908845;29;19911;-75
2022/02/04 14:10:35;;;;;;;;;;;230.70;2252.80;;;;;;4908463;29;19922;-77
2022/02/04 14:13:02;;;;;;;;;;;230.70;2252.80;;;;;;4891985;29;19908;-79
2022/02/04 14:15:31;;;;;;;;;;;230.70;2252.80;;;;;;4906158;29;19908;-76
2022/02/04 14:17:59;;;;;;;;;;;230.70;2252.80;;;;;;4906503;29;20391;-77
2022/02/04 14:20:24;;;;;;;;;;;230.70;2252.80;;;;;;4906093;29;19907;-80
2022/02/04 14:22:50;;;;;;;;;;;230.80;2252.80;;;;;;4907244;29;19907;-80
2022/02/04 14:25:16;;;;;;;;;;;230.80;2252.80;;;;;;4907444;29;20410;-78
2022/02/04 14:27:45;;;;;;;;;;;230.90;2252.80;;;;;;4905849;29;20050;-76
2022/02/04 14:30:17;;;;;;;;;;;230.90;2252.80;;;;;;4905208;29;20017;-75
2022/02/04 14:32:58;;;;;;;;;;;230.90;2252.80;;;;;;4891124;29;19907;-75
2022/02/04 14:49:39;;;;;;;;;;;230.70;2252.80;;;;;;4859386;29;19930;-76
2022/02/04 15:02:51;;;;;;;;;;;230.40;2252.80;;;;;;4803302;29;20000;-75
2022/02/04 15:05:21;;;;;;;;;;;205.70;2252.80;;;;;;4801799;29;19920;-77
2022/02/04 15:07:49;;;;;;;;;;;205.70;2252.80;;;;;;4803698;29;20355;-80
2022/02/04 15:10:27;;;;;;;;;;;205.60;2252.80;;;;;;4803530;29;20008;-79
2022/02/04 15:12:52;;;;;;;;;;;205.60;2252.80;;;;;;4813962;29;19909;-80
2022/02/04 15:15:18;;;;;;;;;;;205.60;2252.80;;;;;;4821575;29;19981;-76
2022/02/04 15:17:44;;;;;;;;;;;205.50;2252.80;;;;;;4807177;29;19991;-87
2022/02/04 15:20:09;;;;;;;;;;;205.40;2252.80;;;;;;4822246;29;20032;-90
2022/02/04 15:22:35;;;;;;;;;;;205.40;2252.80;;;;;;4822714;29;19916;-83
2022/02/04 15:25:10;;;;;;;;;;;205.40;2252.80;;;;;;4822104;29;19913;-76
2022/02/04 15:27:39;;;;;;;;;;;205.40;2252.80;;;;;;4822093;29;19932;-85
2022/02/04 15:30:05;;;;;;;;;;;205.30;2252.80;;;;;;4821879;29;19958;-74
2022/02/04 15:32:30;;;;;;;;;;;205.20;2252.80;;;;;;4821802;29;19909;-76
2022/02/04 15:34:56;;;;;;;;;;;205.20;2252.80;;;;;;4879694;29;20320;-80
2022/02/04 15:37:22;;;;;;;;;;;205.20;2252.80;;;;;;4897546;29;20369;-75
2022/02/04 15:39:47;;;;;;;;;;;205.10;2252.80;;;;;;4894314;29;19926;-79
2022/02/04 15:42:15;;;;;;;;;;;205.10;2252.80;;;;;;4919363;29;19907;-78
2022/02/04 15:44:56;;;;;;;;;;;205.00;2252.80;;;;;;4919798;29;20320;-77
2022/02/04 15:47:37;;;;;;;;;;;205.00;2252.80;;;;;;4920251;29;19914;-75
2022/02/04 15:50:21;;;;;;;;;;;205.00;2252.80;;;;;;4920170;29;19962;-75
2022/02/04 15:53:28;;;;;;;;;;;204.90;2252.80;;;;;;4919852;29;19907;-81
2022/02/04 15:58:21;;;;;;;;;;;204.90;2252.80;;;;;;4919954;29;19918;-79
2022/02/04 16:05:43;;;;;;;;;;;204.80;2252.80;;;;;;4919534;29;19962;-80
2022/02/04 16:08:12;;;;;;;;;;;204.80;2252.80;;;;;;4919607;29;19915;-80
2022/02/04 16:10:51;;;;;;;;;;;180.10;2252.80;;;;;;4919451;29;19923;-75
2022/02/04 16:16:09;;;;;;;;;;;180.00;2252.80;;;;;;4919631;29;19981;-77
2022/02/04 16:18:43;;;;;;;;;;;180.00;2252.80;;;;;;4919518;29;19954;-79
2022/02/04 16:21:24;;;;;;;;;;;179.90;2252.80;;;;;;4902318;29;19911;-79
2022/02/04 16:24:01;;;;;;;;;;;179.80;2252.80;;;;;;4919188;29;20376;-76
2022/02/04 16:28:55;;;;;;;;;;;179.60;2252.80;;;;;;4919544;29;19953;-79
2022/02/04 16:31:21;;;;;;;;;;;179.60;2252.80;;;;;;4918803;29;19958;-77
2022/02/04 16:33:48;;;;;;;;;;;179.40;2252.80;;;;;;4910565;29;20014;-78
2022/02/04 16:36:16;;;;;;;;;;;179.40;2252.80;;;;;;4891611;29;20435;-79
2022/02/04 16:38:44;;;;;;;;;;;179.30;2252.80;;;;;;4909002;29;19922;-79
2022/02/04 16:41:12;;;;;;;;;;;179.20;2252.80;;;;;;4910301;29;19998;-80
2022/02/04 16:43:39;;;;;;;;;;;179.30;2252.80;;;;;;4909746;29;19913;-81
2022/02/04 16:46:06;;;;;;;;;;;179.20;2252.80;;;;;;4909122;29;19963;-84
2022/02/04 16:48:35;;;;;;;;;;;154.50;2252.80;;;;;;4910766;29;20361;-84
2022/02/04 16:51:01;;;;;;;;;;;154.50;2252.80;;;;;;4892334;29;19931;-75
2022/02/04 16:53:29;;;;;;;;;;;154.50;2252.80;;;;;;4907725;29;19994;-80
2022/02/04 16:55:55;;;;;;;;;;;154.40;2252.80;;;;;;4909790;29;20001;-83
2022/02/04 16:58:21;;;;;;;;;;;154.30;2252.80;;;;;;4909014;29;19957;-85
2022/02/04 17:00:47;;;;;;;;;;;154.30;2252.80;;;;;;4908069;29;20046;-85
2022/02/04 17:03:12;;;;;;;;;;;154.00;2252.80;;;;;;4904796;29;20325;-80
2022/02/04 17:08:20;;;;;;;;;;;154.20;2252.80;;;;;;4899470;29;19954;-78
2022/02/04 17:10:49;;;;;;;;;;;154.10;2252.80;;;;;;4885159;29;19915;-78
2022/02/04 17:13:15;;;;;;;;;;;154.10;2252.80;;;;;;4908915;29;19997;-78
2022/02/04 17:15:41;;;;;;;;;;;154.00;2252.80;;;;;;4907574;29;20029;-78
2022/02/04 17:18:07;;;;;;;;;;;154.00;2252.80;;;;;;4899457;29;20347;-80
2022/02/04 17:20:33;;;;;;;;;;;154.10;2252.80;;;;;;4899685;29;20423;-78
2022/02/04 17:23:02;;;;;;;;;;;154.00;2252.80;;;;;;4899334;29;19907;-75
2022/02/04 17:25:29;;;;;;;;;;;154.00;2252.80;;;;;;4899166;29;19956;-81
2022/02/04 17:27:56;;;;;;;;;;;154.00;2252.80;;;;;;4899431;29;19907;-75
2022/02/04 17:30:22;;;;;;;;;;;153.90;2252.80;;;;;;4882414;29;19923;-80
2022/02/04 17:32:49;;;;;;;;;;;153.90;2252.80;;;;;;4899606;29;19914;-79
2022/02/04 17:35:16;;;;;;;;;;;153.90;2252.80;;;;;;4899178;29;19961;-82
2022/02/04 17:37:42;;;;;;;;;;;153.90;2252.80;;;;;;4899225;29;19963;-77
2022/02/04 17:40:09;;;;;;;;;;;153.90;2252.80;;;;;;4898674;29;19931;-77
2022/02/04 17:42:35;;;;;;;;;;;153.80;2252.80;;;;;;4899077;29;19914;-79
2022/02/04 17:45:01;;;;;;;;;;;153.90;2252.80;;;;;;4898885;29;19914;-75
2022/02/04 17:47:27;;;;;;;;;;;153.60;2252.80;;;;;;4882133;29;19907;-74
2022/02/04 17:52:37;;;;;;;;;;;153.70;2252.80;;;;;;4906815;29;19914;-81
2022/02/04 17:55:12;;;;;;;;;;;153.70;2252.80;;;;;;4909149;29;19989;-82
2022/02/04 17:57:53;;;;;;;;;;;153.60;2252.80;;;;;;4906240;29;19915;-81
2022/02/04 18:08:10;;;;;;;;;;;128.90;2252.80;;;;;;4906064;29;20317;-83
2022/02/04 18:10:35;;;;;;;;;;;128.90;2252.80;;;;;;4908410;29;19922;-83
2022/02/04 18:13:02;;;;;;;;;;;128.90;2252.80;;;;;;4887155;29;19990;-80
2022/02/04 18:15:28;;;;;;;;;;;153.60;2252.80;;;;;;4907962;29;19967;-82
2022/02/04 18:17:54;;;;;;;;;;;153.70;2252.80;;;;;;4907989;29;20376;-80
2022/02/04 18:20:21;;;;;;;;;;;153.70;2252.80;;;;;;4906472;29;19907;-79
2022/02/04 18:22:47;;;;;;;;;;;128.90;2252.80;;;;;;4908004;29;19911;-82
2022/02/04 18:25:12;;;;;;;;;;;128.90;2252.80;;;;;;4907658;29;19963;-82
2022/02/04 18:27:39;;;;;;;;;;;128.80;2252.80;;;;;;4908847;29;20291;-79
2022/02/04 18:30:06;;;;;;;;;;;128.80;2252.80;;;;;;4911518;29;19918;-79
2022/02/04 18:32:34;;;;;;;;;;;128.50;2252.80;;;;;;4917213;29;19911;-80
2022/02/04 18:35:01;;;;;;;;;;;128.60;2252.80;;;;;;4911418;29;19911;-76
2022/02/04 18:37:37;;;;;;;;;;;128.90;2252.80;;;;;;4905175;29;19958;-76
2022/02/04 18:40:28;;;;;;;;;;;128.60;2252.80;;;;;;4887418;29;19926;-79
2022/02/04 18:43:10;;;;;;;;;;;128.80;2252.80;;;;;;4898270;29;19971;-81
2022/02/04 18:45:43;;;;;;;;;;;128.60;2252.80;;;;;;4898473;29;19907;-80
2022/02/04 18:48:15;;;;;;;;;;;128.50;2252.80;;;;;;4898358;29;20376;-81
2022/02/04 18:50:50;;;;;;;;;;;128.40;2252.80;;;;;;4898338;29;20343;-81
2022/02/04 18:58:23;;;;;;;;;;;128.20;2252.80;;;;;;4897871;29;19908;-80
2022/02/04 19:00:52;;;;;;;;;;;128.10;2252.80;;;;;;4897893;29;19908;-77
2022/02/04 19:03:23;;;;;;;;;;;128.10;2252.80;;;;;;4897951;29;20006;-78
2022/02/04 19:06:16;;;;;;;;;;;128.00;2252.80;;;;;;4898080;29;19911;-76
2022/02/04 19:08:44;;;;;;;;;;;128.00;2252.80;;;;;;4897506;29;19963;-80
2022/02/04 19:11:10;;;;;;;;;;;128.00;2252.80;;;;;;4897790;29;19915;-78
2022/02/04 19:13:41;;;;;;;;;;;103.30;2227.20;;;;;;4881518;29;19908;-82
2022/02/04 19:21:53;;;;;;;;;;;128.30;2252.80;;;;;;4862597;29;20007;-82
2022/02/04 19:24:20;;;;;;;;;;;128.30;2252.80;;;;;;4862670;29;19911;-82
2022/02/04 19:26:46;;;;;;;;;;;128.50;2252.80;;;;;;4862240;29;19937;-75
2022/02/04 19:29:11;;;;;;;;;;;128.50;2252.80;;;;;;4862421;29;19908;-78
2022/02/04 19:31:50;;;;;;;;;;;128.50;2252.80;;;;;;4862094;29;19924;-81
2022/02/04 19:34:16;;;;;;;;;;;128.30;2252.80;;;;;;4862611;29;19980;-76
2022/02/04 19:36:41;;;;;;;;;;;128.50;2252.80;;;;;;4862289;29;20369;-80
2022/02/04 19:39:07;;;;;;;;;;;128.40;2252.80;;;;;;4862013;29;19946;-81
2022/02/04 19:41:34;;;;;;;;;;;128.40;2252.80;;;;;;4861971;29;20027;-80
2022/02/04 19:44:00;;;;;;;;;;;128.60;2252.80;;;;;;4862030;29;19908;-74
2022/02/04 19:46:31;;;;;;;;;;;128.40;2252.80;;;;;;4861776;29;20255;-81
2022/02/04 19:48:59;;;;;;;;;;;128.60;2252.80;;;;;;4862034;29;19944;-77
2022/02/04 19:51:33;;;;;;;;;;;128.50;2252.80;;;;;;4862219;29;19922;-79
2022/02/04 20:23:55;;;;;;;;;;;153.60;2252.80;;;;;;4861264;29;19956;-80
2022/02/04 20:26:21;;;;;;;;;;;128.80;2252.80;;;;;;4861324;29;20326;-75
2022/02/04 20:28:48;;;;;;;;;;;128.70;2252.80;;;;;;4861148;29;19955;-79
2022/02/04 20:31:13;;;;;;;;;;;153.60;2252.80;;;;;;4860947;29;19924;-76
2022/02/04 20:33:39;;;;;;;;;;;153.80;2252.80;;;;;;4861108;29;19919;-75
2022/02/04 20:36:05;;;;;;;;;;;153.80;2252.80;;;;;;4861117;29;20369;-81